createdAt,value
2023-03-15T00:02:07.560Z,0.80
2023-03-15T00:04:37.174Z,1.00
2023-03-15T00:07:04.897Z,1.03
2023-03-15T00:09:32.632Z,1.13
2023-03-15T00:12:00.349Z,0.93
2023-03-15T00:14:29.561Z,1.27
2023-03-15T00:16:57.244Z,0.97
2023-03-15T00:19:25.062Z,1.60
2023-03-15T00:21:52.759Z,0.80
2023-03-15T00:24:20.958Z,1.17
2023-03-15T00:26:48.739Z,1.07
2023-03-15T00:29:16.462Z,1.80
2023-03-15T00:31:45.871Z,1.10
2023-03-15T00:34:13.995Z,0.80
2023-03-15T00:36:43.565Z,0.87
2023-03-15T00:39:11.325Z,1.07
2023-03-15T00:41:39.077Z,1.27
2023-03-15T00:44:06.813Z,1.07
2023-03-15T00:46:34.651Z,1.20
2023-03-15T00:49:03.849Z,0.83
2023-03-15T00:51:31.901Z,0.90
2023-03-15T00:53:59.913Z,0.80
2023-03-15T00:56:30.705Z,1.30
2023-03-15T00:58:58.578Z,1.20
2023-03-15T01:01:29.183Z,1.40
2023-03-15T01:03:57.998Z,1.20
2023-03-15T01:06:28.841Z,1.50
2023-03-15T01:08:57.238Z,1.17
2023-03-15T01:11:27.635Z,1.10
2023-03-15T01:13:56.760Z,1.00
2023-03-15T01:16:24.875Z,1.20
2023-03-15T01:18:53.140Z,0.70
2023-03-15T01:21:22.507Z,1.30
2023-03-15T01:23:52.009Z,1.23
2023-03-15T01:26:20.016Z,0.70
2023-03-15T01:28:48.069Z,0.80
2023-03-15T01:31:19.505Z,0.50
2023-03-15T01:33:47.361Z,1.23
2023-03-15T01:36:15.688Z,0.90
2023-03-15T01:38:44.178Z,1.30
2023-03-15T01:41:15.152Z,0.87
2023-03-15T01:43:47.204Z,0.53
2023-03-15T01:46:24.764Z,0.43
2023-03-15T01:48:58.120Z,0.60
2023-03-15T01:51:31.183Z,1.60
2023-03-15T01:54:02.939Z,0.80
2023-03-15T01:56:33.876Z,0.80
2023-03-15T01:59:04.821Z,0.77
2023-03-15T02:01:36.880Z,0.83
2023-03-15T02:04:09.075Z,1.00
2023-03-15T02:06:37.380Z,1.10
2023-03-15T02:09:09.958Z,0.87
2023-03-15T02:11:39.148Z,0.80
2023-03-15T02:14:07.761Z,1.07
2023-03-15T02:16:35.594Z,1.00
2023-03-15T02:19:03.375Z,1.60
2023-03-15T02:21:43.375Z,1.10
2023-03-15T02:24:27.392Z,1.17
2023-03-15T02:26:58.307Z,1.37
2023-03-15T02:29:29.633Z,1.40
2023-03-15T02:31:59.280Z,1.33
2023-03-15T02:34:27.385Z,1.40
2023-03-15T02:36:55.700Z,0.97
2023-03-15T02:39:23.799Z,1.00
2023-03-15T02:41:54.518Z,1.50
2023-03-15T02:44:27.954Z,1.63
2023-03-15T02:47:01.333Z,1.67
2023-03-15T02:49:34.029Z,1.97
2023-03-15T02:52:01.739Z,1.13
2023-03-15T02:54:29.524Z,1.60
2023-03-15T02:56:57.254Z,1.57
2023-03-15T02:59:24.937Z,1.93
2023-03-15T03:01:52.649Z,1.47
2023-03-15T03:04:22.371Z,1.70
2023-03-15T03:06:50.089Z,2.20
2023-03-15T03:09:17.845Z,1.93
2023-03-15T03:11:45.893Z,1.60
2023-03-15T03:14:14.651Z,1.93
2023-03-15T03:16:42.771Z,1.43
2023-03-15T03:19:12.509Z,1.73
2023-03-15T03:21:43.220Z,1.80
2023-03-15T03:24:11.414Z,1.83
2023-03-15T03:26:39.163Z,1.70
2023-03-15T03:29:06.882Z,1.67
2023-03-15T03:31:34.714Z,2.20
2023-03-15T03:34:02.443Z,1.30
2023-03-15T03:36:30.169Z,1.60
2023-03-15T03:38:59.410Z,1.47
2023-03-15T03:41:27.108Z,2.10
2023-03-15T03:43:54.882Z,1.60
2023-03-15T03:46:22.619Z,1.97
2023-03-15T03:48:50.534Z,2.23
2023-03-15T03:51:18.240Z,1.33
2023-03-15T03:53:45.981Z,1.47
2023-03-15T03:56:15.060Z,2.17
2023-03-15T03:58:42.783Z,2.10
2023-03-15T04:01:11.656Z,2.03
2023-03-15T04:03:39.401Z,1.80
2023-03-15T04:06:07.253Z,1.90
2023-03-15T04:08:35.027Z,2.30
2023-03-15T04:11:04.126Z,2.90
2023-03-15T04:13:33.316Z,2.60
2023-03-15T04:16:02.690Z,2.20
2023-03-15T04:18:30.498Z,2.37
2023-03-15T04:20:58.208Z,2.97
2023-03-15T04:23:26.011Z,2.53
2023-03-15T04:25:55.211Z,2.60
2023-03-15T04:28:23.815Z,2.70
2023-03-15T04:30:58.977Z,2.17
2023-03-15T04:33:26.871Z,2.10
2023-03-15T04:35:54.985Z,2.77
2023-03-15T04:38:26.584Z,2.97
2023-03-15T04:40:55.462Z,2.50
2023-03-15T04:43:24.310Z,1.97
2023-03-15T04:45:53.466Z,2.53
2023-03-15T04:48:21.188Z,2.33
2023-03-15T04:50:48.925Z,2.57
2023-03-15T04:53:16.636Z,1.80
2023-03-15T04:55:44.346Z,1.57
2023-03-15T04:58:12.055Z,1.57
2023-03-15T05:00:39.816Z,1.50
2023-03-15T05:03:08.920Z,1.53
2023-03-15T05:05:37.371Z,1.80
2023-03-15T05:08:05.412Z,1.40
2023-03-15T05:10:33.319Z,1.70
2023-03-15T05:13:01.068Z,1.63
2023-03-15T05:15:28.884Z,1.70
2023-03-15T05:17:56.705Z,1.97
2023-03-15T05:20:26.032Z,1.47
2023-03-15T05:22:54.221Z,2.03
2023-03-15T05:25:22.233Z,1.80
2023-03-15T05:27:50.088Z,1.53
2023-03-15T05:30:18.138Z,1.80
2023-03-15T05:32:45.875Z,2.13
2023-03-15T05:35:14.658Z,1.93
2023-03-15T05:37:44.001Z,1.70
2023-03-15T05:40:12.902Z,2.00
2023-03-15T05:42:41.199Z,2.43
2023-03-15T05:45:09.951Z,2.80
2023-03-15T05:47:37.706Z,2.77
2023-03-15T05:50:06.069Z,3.03
2023-03-15T05:52:33.764Z,4.57
2023-03-15T05:55:02.828Z,2.50
2023-03-15T05:57:31.376Z,2.70
2023-03-15T05:59:59.050Z,2.47
2023-03-15T06:02:26.756Z,2.47
2023-03-15T06:04:54.458Z,2.67
2023-03-15T06:07:22.420Z,2.97
2023-03-15T06:09:50.124Z,2.30
2023-03-15T06:12:20.016Z,2.63
2023-03-15T06:14:47.761Z,2.27
2023-03-15T06:17:16.275Z,2.50
2023-03-15T06:19:43.986Z,2.57
2023-03-15T06:22:12.022Z,1.77
2023-03-15T06:24:39.730Z,1.90
2023-03-15T06:27:07.501Z,2.73
2023-03-15T06:29:36.583Z,2.40
2023-03-15T06:32:04.536Z,2.60
2023-03-15T06:34:32.293Z,3.10
2023-03-15T06:37:00.023Z,2.73
2023-03-15T06:39:27.715Z,2.70
2023-03-15T06:41:58.394Z,2.23
2023-03-15T06:44:26.109Z,2.90
2023-03-15T06:46:55.296Z,1.53
2023-03-15T06:49:22.991Z,1.93
2023-03-15T06:51:50.743Z,3.17
2023-03-15T06:54:18.476Z,2.57
2023-03-15T06:56:46.217Z,1.90
2023-03-15T06:59:14.006Z,1.70
2023-03-15T07:01:42.111Z,2.10
2023-03-15T07:04:11.250Z,1.53
2023-03-15T07:06:38.972Z,2.10
2023-03-15T07:09:07.221Z,2.00
2023-03-15T07:11:35.143Z,2.00
2023-03-15T07:14:02.846Z,1.60
2023-03-15T07:16:30.828Z,1.47
2023-03-15T07:18:59.995Z,1.60
2023-03-15T07:21:29.734Z,1.67
2023-03-15T07:23:57.457Z,1.73
2023-03-15T07:26:25.178Z,1.63
2023-03-15T07:28:53.063Z,1.60
2023-03-15T07:31:20.884Z,1.30
2023-03-15T07:33:48.776Z,1.60
2023-03-15T07:36:17.837Z,1.47
2023-03-15T07:38:46.905Z,1.17
2023-03-15T07:41:14.923Z,1.20
2023-03-15T07:43:42.621Z,1.20
2023-03-15T07:46:10.484Z,0.97
2023-03-15T07:48:38.244Z,1.30
2023-03-15T07:51:06.788Z,1.13
2023-03-15T07:53:34.516Z,1.40
2023-03-15T07:56:03.683Z,1.10
2023-03-15T07:58:31.738Z,1.20
2023-03-15T08:00:59.477Z,0.93
2023-03-15T08:03:27.826Z,1.30
2023-03-15T08:05:56.569Z,1.13
2023-03-15T08:08:24.438Z,1.37
2023-03-15T08:10:52.187Z,1.23
2023-03-15T08:13:21.292Z,0.67
2023-03-15T08:15:49.321Z,1.57
2023-03-15T08:18:17.039Z,1.33
2023-03-15T08:20:44.784Z,0.90
2023-03-15T08:23:16.653Z,1.27
2023-03-15T08:25:45.927Z,1.30
2023-03-15T08:28:13.814Z,1.23
2023-03-15T08:30:42.912Z,1.00
2023-03-15T08:33:12.620Z,1.13
2023-03-15T08:35:41.357Z,1.27
2023-03-15T08:38:09.990Z,0.93
2023-03-15T08:40:39.840Z,1.00
2023-03-15T08:43:07.836Z,1.00
2023-03-15T08:45:51.055Z,1.20
2023-03-15T08:48:27.733Z,1.10
2023-03-15T08:50:55.512Z,1.00
2023-03-15T08:53:23.229Z,0.90
2023-03-15T08:55:50.966Z,1.30
2023-03-15T08:58:18.820Z,1.10
2023-03-15T09:00:47.211Z,1.30
2023-03-15T09:03:16.132Z,0.97
2023-03-15T09:05:46.533Z,1.30
2023-03-15T09:08:14.535Z,1.20
2023-03-15T09:10:42.276Z,1.30
2023-03-15T09:13:09.976Z,1.43
2023-03-15T09:15:37.702Z,0.90
2023-03-15T09:18:05.798Z,0.93
2023-03-15T09:20:33.776Z,0.77
2023-03-15T09:23:02.869Z,1.10
2023-03-15T09:25:30.775Z,1.50
2023-03-15T09:27:58.738Z,1.10
2023-03-15T09:30:26.767Z,1.30
2023-03-15T09:32:54.470Z,1.13
2023-03-15T09:35:22.909Z,1.30
2023-03-15T09:37:51.399Z,1.20
2023-03-15T09:40:22.897Z,1.30
2023-03-15T09:43:01.300Z,1.00
2023-03-15T09:45:37.108Z,1.10
2023-03-15T09:48:10.650Z,1.00
2023-03-15T09:50:43.578Z,0.67
2023-03-15T09:53:17.319Z,1.30
2023-03-15T09:55:49.793Z,1.00
2023-03-15T09:58:22.451Z,0.80
2023-03-15T10:00:54.618Z,1.23
2023-03-15T10:03:32.016Z,1.10
2023-03-15T10:06:03.825Z,0.73
2023-03-15T10:08:31.667Z,1.03
2023-03-15T10:11:09.850Z,1.27
2023-03-15T10:13:58.881Z,0.50
2023-03-15T10:16:35.909Z,1.00
2023-03-15T10:19:16.177Z,1.10
2023-03-15T10:21:53.178Z,0.67
2023-03-15T10:24:24.365Z,0.67
2023-03-15T10:26:54.981Z,1.23
2023-03-15T10:29:26.382Z,0.67
2023-03-15T10:31:55.953Z,1.10
2023-03-15T10:34:26.156Z,0.90
2023-03-15T10:36:55.481Z,1.30
2023-03-15T10:39:24.472Z,1.30
2023-03-15T10:41:53.611Z,1.07
2023-03-15T10:44:24.288Z,0.83
2023-03-15T10:47:06.953Z,1.37
2023-03-15T10:49:42.095Z,0.90
2023-03-15T10:52:28.610Z,1.00
2023-03-15T10:55:03.965Z,1.00
2023-03-15T10:57:36.690Z,1.10
2023-03-15T11:00:17.271Z,1.33
2023-03-15T11:02:51.260Z,0.73
2023-03-15T11:05:21.492Z,1.03
2023-03-15T11:07:57.421Z,1.10
2023-03-15T11:10:27.951Z,1.00
2023-03-15T11:13:15.194Z,1.10
2023-03-15T11:15:53.810Z,1.80
2023-03-15T11:18:27.797Z,1.00
2023-03-15T11:20:57.415Z,0.63
2023-03-15T11:23:28.159Z,0.70
2023-03-15T11:25:57.108Z,0.90
2023-03-15T11:28:29.154Z,0.80
2023-03-15T11:31:00.766Z,1.20
2023-03-15T11:33:42.369Z,1.40
2023-03-15T11:36:16.782Z,1.00
2023-03-15T11:38:46.514Z,0.50
2023-03-15T11:41:28.570Z,0.90
2023-03-15T11:44:04.904Z,0.90
2023-03-15T11:46:35.612Z,0.50
2023-03-15T11:49:12.153Z,0.80
2023-03-15T11:51:41.018Z,0.83
2023-03-15T11:54:15.017Z,0.97
2023-03-15T11:56:49.384Z,1.00
2023-03-15T11:59:20.300Z,0.80
2023-03-15T12:01:50.268Z,0.73
2023-03-15T12:04:46.628Z,0.97
2023-03-15T12:07:47.052Z,0.70
2023-03-15T12:10:45.164Z,0.87
2023-03-15T12:13:23.821Z,1.10
2023-03-15T12:15:53.937Z,0.73
2023-03-15T12:18:27.095Z,0.60
2023-03-15T12:21:08.404Z,0.90
2023-03-15T12:23:41.491Z,0.80
2023-03-15T12:26:15.338Z,0.90
2023-03-15T12:28:51.745Z,0.70
2023-03-15T12:31:21.491Z,1.07
2023-03-15T12:33:52.333Z,0.97
2023-03-15T12:36:31.513Z,0.67
2023-03-15T12:39:20.812Z,0.60
2023-03-15T12:41:50.360Z,0.70
2023-03-15T12:44:39.487Z,0.60
2023-03-15T12:47:10.202Z,0.67
2023-03-15T12:49:41.202Z,0.77
2023-03-15T12:52:30.095Z,0.73
2023-03-15T12:55:04.770Z,0.63
2023-03-15T12:57:39.989Z,0.60
2023-03-15T13:00:15.620Z,0.70
2023-03-15T13:02:50.127Z,0.77
2023-03-15T13:05:22.020Z,0.93
2023-03-15T13:07:56.705Z,1.10
2023-03-15T13:10:38.547Z,1.10
2023-03-15T13:13:26.793Z,0.43
2023-03-15T13:16:09.189Z,0.80
2023-03-15T13:18:49.649Z,1.00
2023-03-15T13:21:25.614Z,0.30
2023-03-15T13:23:57.239Z,0.97
2023-03-15T13:26:36.891Z,1.73
2023-03-15T13:29:14.225Z,0.80
2023-03-15T13:31:42.329Z,0.90
2023-03-15T13:34:17.164Z,1.00
2023-03-15T13:36:47.084Z,0.97
2023-03-15T13:39:23.188Z,0.60
2023-03-15T13:41:57.352Z,0.80
2023-03-15T13:44:26.790Z,0.80
2023-03-15T13:46:55.334Z,1.03
2023-03-15T13:49:25.117Z,0.80
2023-03-15T13:51:54.871Z,0.80
2023-03-15T13:54:27.572Z,0.67
2023-03-15T13:57:00.046Z,0.50
2023-03-15T13:59:33.745Z,0.63
2023-03-15T14:02:03.538Z,0.53
2023-03-15T14:04:38.073Z,0.60
2023-03-15T14:07:26.573Z,1.00
2023-03-15T14:10:22.116Z,1.10
2023-03-15T14:12:50.395Z,0.90
2023-03-15T14:15:20.609Z,0.50
2023-03-15T14:18:00.745Z,0.70
2023-03-15T14:20:33.604Z,1.00
2023-03-15T14:23:03.207Z,1.03
2023-03-15T14:25:36.215Z,1.10
2023-03-15T14:28:04.891Z,1.20
2023-03-15T14:30:35.684Z,0.80
2023-03-15T14:33:07.499Z,0.90
2023-03-15T14:35:46.083Z,0.90
2023-03-15T14:38:19.977Z,0.80
2023-03-15T14:40:48.440Z,0.97
2023-03-15T14:43:16.425Z,0.50
2023-03-15T14:45:46.639Z,0.90
2023-03-15T14:48:20.030Z,0.67
2023-03-15T14:50:49.207Z,0.70
2023-03-15T14:53:20.044Z,0.40
2023-03-15T14:55:48.226Z,0.60
2023-03-15T14:58:17.376Z,0.50
2023-03-15T15:00:48.524Z,0.33
2023-03-15T15:03:22.119Z,0.63
2023-03-15T15:05:51.388Z,0.60
2023-03-15T15:08:22.232Z,0.70
2023-03-15T15:10:51.855Z,0.30
2023-03-15T15:13:21.860Z,0.40
2023-03-15T15:15:55.556Z,0.30
2023-03-15T15:18:24.897Z,0.50
2023-03-15T15:20:55.949Z,1.20
2023-03-15T15:23:27.059Z,0.53
2023-03-15T15:25:57.386Z,0.50
2023-03-15T15:28:34.556Z,0.50
2023-03-15T15:31:08.531Z,0.80
2023-03-15T15:33:37.295Z,0.50
2023-03-15T15:36:13.410Z,0.77
2023-03-15T15:38:42.066Z,0.50
2023-03-15T15:41:15.804Z,0.70
2023-03-15T15:43:44.502Z,1.63
2023-03-15T15:46:13.380Z,0.90
2023-03-15T15:48:41.776Z,1.00
2023-03-15T15:51:25.751Z,0.70
2023-03-15T15:53:54.753Z,0.97
2023-03-15T15:56:33.995Z,0.80
2023-03-15T15:59:04.439Z,0.60
2023-03-15T16:01:33.394Z,0.73
2023-03-15T16:04:02.240Z,1.10
2023-03-15T16:06:32.606Z,0.77
2023-03-15T16:09:00.769Z,2.03
2023-03-15T16:11:29.199Z,1.53
2023-03-15T16:13:56.898Z,0.80
2023-03-15T16:16:24.954Z,1.27
2023-03-15T16:18:52.627Z,0.90
2023-03-15T16:21:28.524Z,0.87
2023-03-15T16:24:04.600Z,0.70
2023-03-15T16:26:32.625Z,1.43
2023-03-15T16:29:00.330Z,1.00
2023-03-15T16:31:28.107Z,1.40
2023-03-15T16:33:56.127Z,0.90
2023-03-15T16:36:25.315Z,1.73
2023-03-15T16:38:53.018Z,0.90
2023-03-15T16:41:22.072Z,1.17
2023-03-15T16:43:49.761Z,1.30
2023-03-15T16:46:18.257Z,0.63
2023-03-15T16:48:46.063Z,1.10
2023-03-15T16:51:16.521Z,1.00
2023-03-15T16:53:45.545Z,1.53
2023-03-15T16:56:14.910Z,1.10
2023-03-15T16:58:45.134Z,0.83
2023-03-15T17:01:12.874Z,1.37
2023-03-15T17:03:40.582Z,0.90
2023-03-15T17:06:17.329Z,1.30
2023-03-15T17:08:45.251Z,1.00
2023-03-15T17:11:13.464Z,1.10
2023-03-15T17:13:42.268Z,1.23
2023-03-15T17:16:13.285Z,0.90
2023-03-15T17:18:43.010Z,0.90
2023-03-15T17:21:12.975Z,1.37
2023-03-15T17:23:40.741Z,1.07
2023-03-15T17:26:12.760Z,0.97
2023-03-15T17:28:41.535Z,1.10
2023-03-15T17:31:24.567Z,1.13
2023-03-15T17:33:53.234Z,0.60
2023-03-15T17:36:23.737Z,0.80
2023-03-15T17:38:52.233Z,0.90
2023-03-15T17:41:22.649Z,1.37
2023-03-15T17:43:51.721Z,1.23
2023-03-15T17:46:28.166Z,1.10
2023-03-15T17:48:56.966Z,1.20
2023-03-15T17:51:27.560Z,1.20
2023-03-15T17:53:55.818Z,1.00
2023-03-15T17:56:23.785Z,1.60
2023-03-15T17:58:52.501Z,1.80
2023-03-15T18:01:24.072Z,1.50
2023-03-15T18:03:52.409Z,1.50
2023-03-15T18:06:21.775Z,1.37
2023-03-15T18:08:49.917Z,2.10
2023-03-15T18:11:23.536Z,1.50
2023-03-15T18:13:51.519Z,1.67
2023-03-15T18:16:19.550Z,1.50
2023-03-15T18:18:48.873Z,1.23
2023-03-15T18:21:18.868Z,1.20
2023-03-15T18:23:46.935Z,0.97
2023-03-15T18:26:14.753Z,0.90
2023-03-15T18:28:42.519Z,4.80
2023-03-15T18:31:14.146Z,6.23
2023-03-15T18:33:42.065Z,4.10
2023-03-15T18:36:11.776Z,2.63
2023-03-15T18:38:40.311Z,1.60
2023-03-15T18:41:15.122Z,1.53
2023-03-15T18:43:49.399Z,1.83
2023-03-15T18:46:19.603Z,1.83
2023-03-15T18:48:48.050Z,1.63
2023-03-15T18:51:18.334Z,2.17
2023-03-15T18:53:46.417Z,1.63
2023-03-15T18:56:19.215Z,2.30
2023-03-15T18:58:47.357Z,2.27
2023-03-15T19:01:15.601Z,2.63
2023-03-15T19:03:43.676Z,1.60
2023-03-15T19:06:13.501Z,2.33
2023-03-15T19:08:42.918Z,2.10
2023-03-15T19:11:17.070Z,1.80
2023-03-15T19:13:50.768Z,1.80
2023-03-15T19:16:19.014Z,2.07
2023-03-15T19:18:46.766Z,1.80
2023-03-15T19:21:14.583Z,2.30
2023-03-15T19:23:46.765Z,1.67
2023-03-15T19:26:14.800Z,2.23
2023-03-15T19:28:42.684Z,1.97
2023-03-15T19:31:11.334Z,1.47
2023-03-15T19:33:39.385Z,1.63
2023-03-15T19:36:08.294Z,2.00
2023-03-15T19:38:36.121Z,1.87
2023-03-15T19:41:06.624Z,1.93
2023-03-15T19:43:37.809Z,2.43
2023-03-15T19:46:07.960Z,1.80
2023-03-15T19:48:35.854Z,2.00
2023-03-15T19:51:04.516Z,1.77
2023-03-15T19:53:32.539Z,2.03
2023-03-15T19:56:00.292Z,2.00
2023-03-15T19:58:29.377Z,1.57
2023-03-15T20:00:57.160Z,1.87
2023-03-15T20:03:25.638Z,1.80
2023-03-15T20:05:53.374Z,2.10
2023-03-15T20:08:21.261Z,2.17
2023-03-15T20:10:49.499Z,2.00
2023-03-15T20:13:17.268Z,2.30
2023-03-15T20:15:46.921Z,1.77
2023-03-15T20:18:16.078Z,1.87
2023-03-15T20:20:44.223Z,1.67
2023-03-15T20:23:11.938Z,2.27
2023-03-15T20:25:39.661Z,2.50
2023-03-15T20:28:07.359Z,1.83
2023-03-15T20:30:35.428Z,2.17
2023-03-15T20:33:04.619Z,2.20
2023-03-15T20:35:32.334Z,2.33
2023-03-15T20:38:06.522Z,2.37
2023-03-15T20:40:35.008Z,2.43
2023-03-15T20:43:02.895Z,2.10
2023-03-15T20:45:31.906Z,2.10
2023-03-15T20:47:59.670Z,2.03
2023-03-15T20:50:28.837Z,1.90
2023-03-15T20:52:56.540Z,1.80
2023-03-15T20:55:24.617Z,2.23
2023-03-15T20:57:53.505Z,1.43
2023-03-15T21:00:22.724Z,1.80
2023-03-15T21:02:50.959Z,1.47
2023-03-15T21:05:18.909Z,1.53
2023-03-15T21:07:47.995Z,1.90
2023-03-15T21:10:15.723Z,1.83
2023-03-15T21:12:44.891Z,1.40
2023-03-15T21:15:17.414Z,1.70
2023-03-15T21:17:45.713Z,2.13
2023-03-15T21:20:15.529Z,1.40
2023-03-15T21:22:43.507Z,1.50
2023-03-15T21:25:13.312Z,1.50
2023-03-15T21:27:41.082Z,1.60
2023-03-15T21:30:10.467Z,2.00
2023-03-15T21:32:38.361Z,2.10
2023-03-15T21:35:07.088Z,2.00
2023-03-15T21:37:34.993Z,2.33
2023-03-15T21:40:02.781Z,1.40
2023-03-15T21:42:31.861Z,1.83
2023-03-15T21:44:59.547Z,1.77
2023-03-15T21:47:27.597Z,1.77
2023-03-15T21:49:55.337Z,1.80
2023-03-15T21:52:26.188Z,1.70
2023-03-15T21:54:53.974Z,2.00
2023-03-15T21:57:22.673Z,1.67
2023-03-15T21:59:51.805Z,1.57
2023-03-15T22:02:19.758Z,1.77
2023-03-15T22:04:47.535Z,1.60
2023-03-15T22:07:15.289Z,1.90
2023-03-15T22:09:43.363Z,1.40
2023-03-15T22:12:12.933Z,1.50
2023-03-15T22:14:42.019Z,1.27
2023-03-15T22:17:11.215Z,2.03
2023-03-15T22:19:38.937Z,1.60
2023-03-15T22:22:06.759Z,1.40
2023-03-15T22:24:34.886Z,1.20
2023-03-15T22:27:02.898Z,1.30
2023-03-15T22:29:30.845Z,1.50
2023-03-15T22:31:58.793Z,1.50
2023-03-15T22:34:28.726Z,1.23
2023-03-15T22:36:56.500Z,0.93
2023-03-15T22:39:24.211Z,1.23
2023-03-15T22:41:51.954Z,1.50
2023-03-15T22:44:19.636Z,1.00
2023-03-15T22:46:47.570Z,1.60
2023-03-15T22:49:15.280Z,1.83
2023-03-15T22:51:44.367Z,1.30
2023-03-15T22:54:12.070Z,1.43
2023-03-15T22:56:41.044Z,1.30
2023-03-15T22:59:08.857Z,2.00
2023-03-15T23:01:36.609Z,1.53
2023-03-15T23:04:04.705Z,1.47
2023-03-15T23:06:32.464Z,1.50
2023-03-15T23:09:01.558Z,1.80
2023-03-15T23:11:29.313Z,2.90
2023-03-15T23:13:57.016Z,1.70
2023-03-15T23:16:24.940Z,1.33
2023-03-15T23:18:52.687Z,1.70
2023-03-15T23:21:20.533Z,1.70
2023-03-15T23:23:48.241Z,1.87
2023-03-15T23:26:19.469Z,1.47
2023-03-15T23:28:47.724Z,1.53
2023-03-15T23:31:15.526Z,1.90
2023-03-15T23:33:46.955Z,1.10
2023-03-15T23:36:15.067Z,1.33
2023-03-15T23:38:42.807Z,1.53
2023-03-15T23:41:10.492Z,1.50
2023-03-15T23:43:39.739Z,0.93
2023-03-15T23:46:07.689Z,2.43
2023-03-15T23:48:37.041Z,1.30
2023-03-15T23:51:05.810Z,1.53
2023-03-15T23:53:33.704Z,1.77
2023-03-15T23:56:01.749Z,1.87
2023-03-15T23:58:29.551Z,1.27
